createdAt,value
2023-05-10T00:01:04.492Z,13.49
2023-05-10T00:03:34.064Z,13.47
2023-05-10T00:06:02.244Z,13.45
2023-05-10T00:08:30.288Z,13.43
2023-05-10T00:10:58.367Z,13.40
2023-05-10T00:13:26.625Z,13.39
2023-05-10T00:15:54.913Z,13.34
2023-05-10T00:18:22.998Z,13.30
2023-05-10T00:20:52.629Z,13.29
2023-05-10T00:23:20.682Z,13.28
2023-05-10T00:25:48.735Z,13.24
2023-05-10T00:28:16.836Z,13.21
2023-05-10T00:30:44.916Z,13.20
2023-05-10T00:33:13.563Z,13.20
2023-05-10T00:35:41.725Z,13.19
2023-05-10T00:38:11.166Z,13.17
2023-05-10T00:40:39.333Z,13.13
2023-05-10T00:43:07.452Z,13.13
2023-05-10T00:45:37.317Z,13.11
2023-05-10T00:48:05.952Z,13.09
2023-05-10T00:50:34.795Z,13.07
2023-05-10T00:53:03.082Z,13.05
2023-05-10T00:55:33.134Z,13.02
2023-05-10T00:58:01.358Z,12.99
2023-05-10T01:00:30.638Z,12.98
2023-05-10T01:02:59.067Z,12.96
2023-05-10T01:05:28.366Z,12.91
2023-05-10T01:07:56.421Z,12.88
2023-05-10T01:10:24.637Z,12.86
2023-05-10T01:12:54.396Z,12.83
2023-05-10T01:15:22.794Z,12.79
2023-05-10T01:17:51.011Z,12.75
2023-05-10T01:20:19.334Z,12.72
2023-05-10T01:23:20.828Z,12.69
2023-05-10T01:26:14.002Z,12.71
2023-05-10T01:29:00.343Z,12.67
2023-05-10T01:31:40.730Z,12.66
2023-05-10T01:34:11.755Z,12.65
2023-05-10T01:36:45.682Z,12.60
2023-05-10T01:39:18.311Z,12.56
2023-05-10T01:41:50.044Z,12.54
2023-05-10T01:44:23.427Z,12.54
2023-05-10T01:46:55.315Z,12.55
2023-05-10T01:49:28.510Z,12.52
2023-05-10T01:52:01.541Z,12.52
2023-05-10T01:54:30.891Z,12.53
2023-05-10T01:57:04.109Z,12.53
2023-05-10T01:59:37.227Z,12.52
2023-05-10T02:02:07.005Z,12.51
2023-05-10T02:04:37.389Z,12.50
2023-05-10T02:07:06.103Z,12.51
2023-05-10T02:09:35.078Z,12.48
2023-05-10T02:12:05.940Z,12.48
2023-05-10T02:14:37.246Z,12.47
2023-05-10T02:17:07.644Z,12.47
2023-05-10T02:19:38.884Z,12.49
2023-05-10T02:22:07.823Z,12.46
2023-05-10T02:24:36.978Z,12.44
2023-05-10T02:27:06.602Z,12.43
2023-05-10T02:29:35.515Z,12.43
2023-05-10T02:32:04.560Z,12.43
2023-05-10T02:34:33.378Z,12.39
2023-05-10T02:37:04.233Z,12.38
2023-05-10T02:39:33.831Z,12.39
2023-05-10T02:42:02.626Z,12.37
2023-05-10T02:44:32.132Z,12.33
2023-05-10T02:47:00.929Z,12.29
2023-05-10T02:49:29.018Z,12.26
2023-05-10T02:52:02.207Z,12.27
2023-05-10T02:54:35.278Z,12.26
2023-05-10T02:57:06.231Z,12.23
2023-05-10T02:59:34.631Z,12.22
2023-05-10T03:02:03.303Z,12.18
2023-05-10T03:04:31.469Z,12.16
2023-05-10T03:07:00.163Z,12.16
2023-05-10T03:09:28.398Z,12.15
2023-05-10T03:12:03.723Z,12.15
2023-05-10T03:14:39.119Z,12.12
2023-05-10T03:17:13.484Z,12.08
2023-05-10T03:19:46.022Z,12.08
2023-05-10T03:22:15.278Z,12.06
2023-05-10T03:24:44.284Z,12.06
2023-05-10T03:27:13.947Z,12.04
2023-05-10T03:29:42.283Z,12.03
2023-05-10T03:32:10.412Z,12.02
2023-05-10T03:34:43.629Z,12.00
2023-05-10T03:37:11.719Z,11.96
2023-05-10T03:39:39.837Z,11.96
2023-05-10T03:42:08.136Z,11.96
2023-05-10T03:44:38.197Z,11.91
2023-05-10T03:47:06.394Z,11.89
2023-05-10T03:49:34.569Z,11.90
2023-05-10T03:52:02.670Z,11.89
2023-05-10T03:54:30.795Z,11.89
2023-05-10T03:56:58.882Z,11.87
2023-05-10T03:59:26.987Z,11.87
2023-05-10T04:01:56.482Z,11.88
2023-05-10T04:04:24.778Z,11.90
2023-05-10T04:06:52.838Z,11.92
2023-05-10T04:09:20.952Z,11.95
2023-05-10T04:11:49.034Z,11.96
2023-05-10T04:14:17.493Z,11.96
2023-05-10T04:16:45.983Z,11.98
2023-05-10T04:19:15.534Z,12.01
2023-05-10T04:21:43.606Z,12.05
2023-05-10T04:24:13.090Z,12.06
2023-05-10T04:26:41.636Z,12.05
2023-05-10T04:29:09.724Z,12.08
2023-05-10T04:31:38.264Z,12.15
2023-05-10T04:34:06.345Z,12.21
2023-05-10T04:36:36.793Z,12.27
2023-05-10T04:39:05.207Z,12.29
2023-05-10T04:41:33.492Z,12.33
2023-05-10T04:44:01.548Z,12.36
2023-05-10T04:46:29.650Z,12.39
2023-05-10T04:48:57.827Z,12.45
2023-05-10T04:51:25.938Z,12.52
2023-05-10T04:54:05.397Z,12.55
2023-05-10T04:56:34.933Z,12.56
2023-05-10T04:59:03.609Z,12.60
2023-05-10T05:01:31.790Z,12.67
2023-05-10T05:04:00.320Z,12.68
2023-05-10T05:06:28.653Z,12.69
2023-05-10T05:08:58.100Z,12.68
2023-05-10T05:11:26.447Z,12.69
2023-05-10T05:13:54.626Z,12.69
2023-05-10T05:16:22.798Z,12.75
2023-05-10T05:18:50.928Z,12.85
2023-05-10T05:21:19.634Z,12.93
2023-05-10T05:23:48.058Z,13.05
2023-05-10T05:26:17.610Z,13.23
2023-05-10T05:28:45.711Z,13.40
2023-05-10T05:31:14.903Z,13.60
2023-05-10T05:33:43.090Z,13.82
2023-05-10T05:36:11.409Z,14.14
2023-05-10T05:38:39.603Z,14.47
2023-05-10T05:41:07.691Z,14.63
2023-05-10T05:43:38.498Z,14.72
2023-05-10T05:46:07.010Z,14.82
2023-05-10T05:48:35.148Z,14.81
2023-05-10T05:51:04.679Z,14.86
2023-05-10T05:53:34.639Z,14.84
2023-05-10T05:56:02.842Z,14.85
2023-05-10T05:58:30.892Z,14.95
2023-05-10T06:01:00.352Z,15.00
2023-05-10T06:03:28.504Z,15.10
2023-05-10T06:05:56.648Z,15.14
2023-05-10T06:08:24.713Z,15.10
2023-05-10T06:10:52.785Z,15.01
2023-05-10T06:13:20.880Z,14.94
2023-05-10T06:15:48.998Z,14.96
2023-05-10T06:18:18.458Z,14.97
2023-05-10T06:20:46.523Z,15.00
2023-05-10T06:23:14.582Z,15.18
2023-05-10T06:25:42.744Z,15.36
2023-05-10T06:28:10.787Z,15.55
2023-05-10T06:30:39.122Z,15.86
2023-05-10T06:33:07.254Z,16.13
2023-05-10T06:35:37.763Z,16.29
2023-05-10T06:38:05.970Z,16.44
2023-05-10T06:40:34.091Z,16.67
2023-05-10T06:43:02.264Z,16.88
2023-05-10T06:45:30.340Z,16.99
2023-05-10T06:47:58.458Z,17.04
2023-05-10T06:50:26.762Z,17.02
2023-05-10T06:52:56.468Z,17.00
2023-05-10T06:55:24.657Z,17.15
2023-05-10T06:57:52.809Z,17.31
2023-05-10T07:00:21.744Z,17.35
2023-05-10T07:02:50.093Z,17.31
2023-05-10T07:05:18.732Z,17.28
2023-05-10T07:07:47.084Z,17.22
2023-05-10T07:10:16.697Z,17.24
2023-05-10T07:12:44.798Z,17.42
2023-05-10T07:15:13.680Z,17.57
2023-05-10T07:17:43.204Z,17.65
2023-05-10T07:20:14.023Z,17.69
2023-05-10T07:22:42.085Z,17.78
2023-05-10T07:25:10.479Z,17.92
2023-05-10T07:27:39.918Z,17.99
2023-05-10T07:30:09.397Z,17.97
2023-05-10T07:32:37.552Z,17.97
2023-05-10T07:35:06.535Z,17.93
2023-05-10T07:37:34.628Z,17.89
2023-05-10T07:40:03.038Z,17.90
2023-05-10T07:42:31.137Z,17.87
2023-05-10T07:45:02.582Z,17.88
2023-05-10T07:47:30.633Z,18.06
2023-05-10T07:49:58.792Z,18.22
2023-05-10T07:52:26.979Z,18.46
2023-05-10T07:54:55.711Z,18.65
2023-05-10T07:57:23.792Z,18.70
2023-05-10T07:59:51.868Z,18.80
2023-05-10T08:02:21.353Z,18.84
2023-05-10T08:04:49.481Z,18.99
2023-05-10T08:07:17.685Z,19.03
2023-05-10T08:09:45.782Z,18.93
2023-05-10T08:12:13.846Z,18.97
2023-05-10T08:14:41.924Z,19.06
2023-05-10T08:17:10.929Z,19.08
2023-05-10T08:19:40.573Z,19.09
2023-05-10T08:22:08.668Z,19.21
2023-05-10T08:24:39.329Z,19.36
2023-05-10T08:27:07.646Z,19.39
2023-05-10T08:29:49.014Z,19.46
2023-05-10T08:32:17.999Z,19.54
2023-05-10T08:34:47.502Z,19.67
2023-05-10T08:37:15.710Z,19.84
2023-05-10T08:39:43.800Z,19.95
2023-05-10T08:42:11.926Z,19.85
2023-05-10T08:44:40.106Z,19.83
2023-05-10T08:47:08.943Z,19.79
2023-05-10T08:49:37.331Z,19.86
2023-05-10T08:52:08.325Z,20.05
2023-05-10T08:54:36.602Z,20.17
2023-05-10T08:57:05.051Z,20.33
2023-05-10T08:59:34.123Z,20.45
2023-05-10T09:02:02.571Z,20.65
2023-05-10T09:04:31.499Z,20.73
2023-05-10T09:06:59.887Z,20.86
2023-05-10T09:09:29.530Z,20.87
2023-05-10T09:11:57.663Z,20.76
2023-05-10T09:14:26.765Z,20.61
2023-05-10T09:16:56.307Z,20.55
2023-05-10T09:19:24.472Z,20.46
2023-05-10T09:21:52.617Z,20.57
2023-05-10T09:24:20.784Z,20.82
2023-05-10T09:26:50.818Z,21.00
2023-05-10T09:29:18.944Z,21.06
2023-05-10T09:31:49.128Z,20.97
2023-05-10T09:34:22.093Z,20.75
2023-05-10T09:36:57.554Z,20.71
2023-05-10T09:39:33.922Z,20.79
2023-05-10T09:42:05.764Z,20.86
2023-05-10T09:44:34.642Z,20.80
2023-05-10T09:47:03.438Z,20.88
2023-05-10T09:49:32.007Z,21.06
2023-05-10T09:52:03.474Z,21.27
2023-05-10T09:54:31.840Z,21.49
2023-05-10T09:56:59.951Z,21.52
2023-05-10T09:59:30.035Z,21.68
2023-05-10T10:01:58.839Z,21.89
2023-05-10T10:04:28.167Z,21.98
2023-05-10T10:07:04.484Z,22.18
2023-05-10T10:09:33.063Z,22.35
2023-05-10T10:12:01.524Z,22.48
2023-05-10T10:14:31.361Z,22.63
2023-05-10T10:19:34.857Z,22.92
2023-05-10T10:22:03.168Z,22.93
2023-05-10T10:24:31.227Z,22.79
2023-05-10T10:27:05.365Z,22.54
2023-05-10T10:29:39.132Z,22.25
2023-05-10T10:32:13.932Z,21.93
2023-05-10T10:34:42.181Z,21.70
2023-05-10T10:37:10.667Z,21.68
2023-05-10T10:39:38.750Z,21.64
2023-05-10T10:42:06.979Z,21.59
2023-05-10T10:44:41.286Z,21.53
2023-05-10T10:47:25.876Z,21.59
2023-05-10T10:50:04.471Z,21.64
2023-05-10T10:52:36.422Z,21.70
2023-05-10T10:55:09.489Z,21.72
2023-05-10T10:57:49.472Z,21.67
2023-05-10T11:00:27.524Z,21.62
2023-05-10T11:02:58.073Z,21.46
2023-05-10T11:05:44.712Z,21.17
2023-05-10T11:08:20.729Z,20.95
2023-05-10T11:10:53.918Z,20.79
2023-05-10T11:13:32.406Z,20.70
2023-05-10T11:16:12.190Z,20.65
2023-05-10T11:18:40.436Z,20.60
2023-05-10T11:21:11.642Z,20.47
2023-05-10T11:24:01.154Z,20.43
2023-05-10T11:26:33.892Z,20.49
2023-05-10T11:29:03.207Z,20.54
2023-05-10T11:31:32.720Z,20.61
2023-05-10T11:34:02.667Z,20.63
2023-05-10T11:36:34.272Z,20.60
2023-05-10T11:39:02.393Z,20.55
2023-05-10T11:41:31.982Z,20.61
2023-05-10T11:44:00.835Z,20.72
2023-05-10T11:46:30.465Z,20.80
2023-05-10T11:49:05.132Z,20.85
2023-05-10T11:51:36.776Z,20.81
2023-05-10T11:54:08.618Z,20.80
2023-05-10T11:56:36.752Z,20.77
2023-05-10T11:59:05.925Z,20.71
2023-05-10T12:01:34.742Z,20.62
2023-05-10T12:04:04.599Z,20.44
2023-05-10T12:06:34.912Z,20.22
2023-05-10T12:09:07.850Z,20.04
2023-05-10T12:11:44.068Z,19.91
2023-05-10T12:14:12.773Z,19.79
2023-05-10T12:16:40.964Z,19.61
2023-05-10T12:19:10.534Z,19.43
2023-05-10T12:21:39.880Z,19.25
2023-05-10T12:24:09.457Z,19.07
2023-05-10T12:26:37.829Z,18.84
2023-05-10T12:29:16.625Z,18.59
2023-05-10T12:31:58.375Z,18.34
2023-05-10T12:34:29.166Z,18.20
2023-05-10T12:36:57.586Z,18.07
2023-05-10T12:39:25.894Z,17.93
2023-05-10T12:41:54.156Z,17.77
2023-05-10T12:44:22.269Z,17.60
2023-05-10T12:46:50.355Z,17.45
2023-05-10T12:49:19.975Z,17.35
2023-05-10T12:51:49.483Z,17.27
2023-05-10T12:54:17.575Z,17.25
2023-05-10T12:56:45.848Z,17.24
2023-05-10T12:59:13.938Z,17.24
2023-05-10T13:01:42.122Z,17.19
2023-05-10T13:04:10.410Z,17.10
2023-05-10T13:06:38.616Z,17.08
2023-05-10T13:09:08.086Z,17.08
2023-05-10T13:11:36.273Z,17.07
2023-05-10T13:14:05.245Z,16.99
2023-05-10T13:16:33.550Z,16.91
2023-05-10T13:19:01.751Z,16.91
2023-05-10T13:21:30.042Z,16.93
2023-05-10T13:23:58.137Z,16.89
2023-05-10T13:26:27.632Z,16.79
2023-05-10T13:28:56.594Z,16.71
2023-05-10T13:31:24.771Z,16.64
2023-05-10T13:33:52.981Z,16.56
2023-05-10T13:36:21.102Z,16.56
2023-05-10T13:38:49.202Z,16.63
2023-05-10T13:41:17.284Z,16.65
2023-05-10T13:43:46.855Z,16.63
2023-05-10T13:46:14.993Z,16.60
2023-05-10T13:48:43.105Z,16.58
2023-05-10T13:51:11.247Z,16.60
2023-05-10T13:53:39.401Z,16.69
2023-05-10T13:56:08.043Z,16.73
2023-05-10T13:58:36.791Z,16.78
2023-05-10T14:01:06.820Z,16.83
2023-05-10T14:03:35.033Z,16.87
2023-05-10T14:06:03.512Z,16.91
2023-05-10T14:08:31.625Z,16.96
2023-05-10T14:10:59.718Z,17.06
2023-05-10T14:13:27.819Z,17.17
2023-05-10T14:15:56.536Z,17.19
2023-05-10T14:18:26.816Z,17.16
2023-05-10T14:20:54.993Z,17.18
2023-05-10T14:23:25.241Z,17.17
2023-05-10T14:25:53.435Z,17.17
2023-05-10T14:28:21.895Z,17.14
2023-05-10T14:30:50.082Z,17.14
2023-05-10T14:33:19.054Z,17.18
2023-05-10T14:35:48.921Z,17.23
2023-05-10T14:38:17.089Z,17.29
2023-05-10T14:40:45.367Z,17.43
2023-05-10T14:43:13.495Z,17.59
2023-05-10T14:45:41.667Z,17.75
2023-05-10T14:48:13.157Z,17.87
2023-05-10T14:50:41.239Z,17.99
2023-05-10T14:53:10.841Z,18.11
2023-05-10T14:55:39.317Z,18.18
2023-05-10T14:58:07.454Z,18.19
2023-05-10T15:00:35.539Z,18.25
2023-05-10T15:03:04.566Z,18.35
2023-05-10T15:05:33.246Z,18.45
2023-05-10T15:08:02.024Z,18.48
2023-05-10T15:10:33.810Z,18.46
2023-05-10T15:13:02.503Z,18.47
2023-05-10T15:15:30.686Z,18.52
2023-05-10T15:17:58.972Z,18.44
2023-05-10T15:20:27.136Z,18.40
2023-05-10T15:22:55.268Z,18.33
2023-05-10T15:25:24.670Z,18.31
2023-05-10T15:27:54.147Z,18.23
2023-05-10T15:30:22.350Z,18.21
2023-05-10T15:32:50.429Z,18.23
2023-05-10T15:35:18.996Z,18.30
2023-05-10T15:37:49.144Z,18.32
2023-05-10T15:40:17.277Z,18.32
2023-05-10T15:42:45.460Z,18.34
2023-05-10T15:45:16.218Z,18.37
2023-05-10T15:47:45.256Z,18.39
2023-05-10T15:50:13.500Z,18.39
2023-05-10T15:52:42.278Z,18.37
2023-05-10T15:55:13.211Z,18.39
2023-05-10T15:57:42.635Z,18.39
2023-05-10T16:00:12.806Z,18.35
2023-05-10T16:02:42.802Z,18.29
2023-05-10T16:05:11.252Z,18.26
2023-05-10T16:07:40.195Z,18.24
2023-05-10T16:10:10.545Z,18.23
2023-05-10T16:12:39.020Z,18.23
2023-05-10T16:15:08.186Z,18.21
2023-05-10T16:17:37.355Z,18.17
2023-05-10T16:20:08.463Z,18.18
2023-05-10T16:22:36.906Z,18.21
2023-05-10T16:25:05.581Z,18.26
2023-05-10T16:27:33.713Z,18.31
2023-05-10T16:30:02.202Z,18.34
2023-05-10T16:32:30.422Z,18.39
2023-05-10T16:34:59.935Z,18.41
2023-05-10T16:37:29.677Z,18.44
2023-05-10T16:39:57.860Z,18.46
2023-05-10T16:42:26.134Z,18.44
2023-05-10T16:44:55.201Z,18.44
2023-05-10T16:47:23.360Z,18.44
2023-05-10T16:49:51.516Z,18.46
2023-05-10T16:52:19.579Z,18.42
2023-05-10T16:54:49.127Z,18.39
2023-05-10T16:57:17.365Z,18.41
2023-05-10T16:59:45.481Z,18.45
2023-05-10T17:02:13.674Z,18.53
2023-05-10T17:04:41.874Z,18.56
2023-05-10T17:07:10.459Z,18.62
2023-05-10T17:09:38.649Z,18.67
2023-05-10T17:12:08.226Z,18.70
2023-05-10T17:14:36.956Z,18.70
2023-05-10T17:17:05.109Z,18.70
2023-05-10T17:19:33.267Z,18.71
2023-05-10T17:22:01.404Z,18.66
2023-05-10T17:24:29.786Z,18.64
2023-05-10T17:26:58.435Z,18.60
2023-05-10T17:29:29.094Z,18.59
2023-05-10T17:31:57.378Z,18.57
2023-05-10T17:34:25.549Z,18.56
2023-05-10T17:36:53.718Z,18.51
2023-05-10T17:39:21.777Z,18.44
2023-05-10T17:41:49.884Z,18.41
2023-05-10T17:44:18.064Z,18.40
2023-05-10T17:46:47.651Z,18.38
2023-05-10T17:49:16.228Z,18.37
2023-05-10T17:51:44.638Z,18.34
2023-05-10T17:54:12.718Z,18.32
2023-05-10T17:56:40.781Z,18.27
2023-05-10T17:59:09.026Z,18.23
2023-05-10T18:01:37.217Z,18.15
2023-05-10T18:04:06.782Z,18.09
2023-05-10T18:06:37.361Z,18.02
2023-05-10T18:09:07.264Z,18.01
2023-05-10T18:11:36.184Z,17.98
2023-05-10T18:14:04.685Z,17.96
2023-05-10T18:16:32.835Z,17.94
2023-05-10T18:19:01.234Z,17.91
2023-05-10T18:21:31.322Z,17.90
2023-05-10T18:23:59.430Z,17.84
2023-05-10T18:26:27.784Z,17.81
2023-05-10T18:28:55.874Z,17.62
2023-05-10T18:31:24.167Z,17.41
2023-05-10T18:33:52.486Z,17.25
2023-05-10T18:36:21.364Z,17.12
2023-05-10T18:38:50.845Z,17.00
2023-05-10T18:41:19.330Z,16.94
2023-05-10T18:43:47.405Z,16.89
2023-05-10T18:46:15.893Z,16.87
2023-05-10T18:48:43.989Z,16.81
2023-05-10T18:51:12.495Z,16.77
2023-05-10T18:53:40.837Z,16.76
2023-05-10T18:56:10.368Z,16.70
2023-05-10T18:58:38.563Z,16.63
2023-05-10T19:01:06.922Z,16.51
2023-05-10T19:03:35.050Z,16.46
2023-05-10T19:06:03.182Z,16.47
2023-05-10T19:08:31.328Z,16.46
2023-05-10T19:10:59.446Z,16.42
2023-05-10T19:13:30.280Z,16.39
2023-05-10T19:16:04.948Z,16.35
2023-05-10T19:18:33.321Z,16.31
2023-05-10T19:21:04.498Z,16.22
2023-05-10T19:23:33.142Z,16.16
2023-05-10T19:26:01.504Z,16.07
2023-05-10T19:28:31.027Z,16.01
2023-05-10T19:30:59.124Z,15.96
2023-05-10T19:33:27.268Z,15.94
2023-05-10T19:35:56.252Z,15.92
2023-05-10T19:38:24.757Z,15.89
2023-05-10T19:40:58.054Z,15.85
2023-05-10T19:43:26.406Z,15.83
2023-05-10T19:45:56.206Z,15.80
2023-05-10T19:48:24.321Z,15.75
2023-05-10T19:50:52.440Z,15.74
2023-05-10T19:53:20.616Z,15.70
2023-05-10T19:55:48.840Z,15.69
2023-05-10T19:58:17.995Z,15.66
2023-05-10T20:00:46.165Z,15.65
2023-05-10T20:03:15.723Z,15.64
2023-05-10T20:05:43.841Z,15.63
2023-05-10T20:08:11.926Z,15.63
2023-05-10T20:10:40.072Z,15.65
2023-05-10T20:13:08.266Z,15.65
2023-05-10T20:15:36.373Z,15.65
2023-05-10T20:18:04.796Z,15.64
2023-05-10T20:20:34.412Z,15.62
2023-05-10T20:23:02.486Z,15.60
2023-05-10T20:25:30.584Z,15.57
2023-05-10T20:27:58.663Z,15.56
2023-05-10T20:30:26.802Z,15.55
2023-05-10T20:32:54.904Z,15.54
2023-05-10T20:35:23.106Z,15.51
2023-05-10T20:37:52.537Z,15.49
2023-05-10T20:40:20.638Z,15.47
2023-05-10T20:42:49.560Z,15.45
2023-05-10T20:45:17.805Z,15.43
2023-05-10T20:47:45.922Z,15.39
2023-05-10T20:50:14.053Z,15.31
2023-05-10T20:52:42.394Z,15.25
2023-05-10T20:55:12.747Z,15.20
2023-05-10T20:57:40.860Z,15.15
2023-05-10T21:00:10.465Z,15.14
2023-05-10T21:02:38.557Z,15.12
2023-05-10T21:05:07.509Z,15.09
2023-05-10T21:07:35.710Z,15.07
2023-05-10T21:10:04.187Z,15.06
2023-05-10T21:12:33.644Z,15.06
2023-05-10T21:15:01.751Z,15.04
2023-05-10T21:17:29.816Z,15.00
2023-05-10T21:19:57.899Z,14.97
2023-05-10T21:22:26.222Z,14.97
2023-05-10T21:24:54.312Z,14.97
2023-05-10T21:27:22.376Z,14.96
2023-05-10T21:29:52.168Z,14.93
2023-05-10T21:32:20.255Z,14.92
2023-05-10T21:34:48.451Z,14.91
2023-05-10T21:37:16.948Z,14.92
2023-05-10T21:39:45.067Z,14.91
2023-05-10T21:42:13.103Z,14.91
2023-05-10T21:44:41.188Z,14.88
2023-05-10T21:47:10.643Z,14.80
2023-05-10T21:49:38.805Z,14.72
2023-05-10T21:52:07.292Z,14.66
2023-05-10T21:54:37.270Z,14.63
2023-05-10T21:57:05.401Z,14.55
2023-05-10T21:59:33.527Z,14.48
2023-05-10T22:02:01.751Z,14.42
2023-05-10T22:04:31.222Z,14.36
2023-05-10T22:06:59.313Z,14.21
2023-05-10T22:09:27.512Z,14.13
2023-05-10T22:11:55.625Z,14.05
2023-05-10T22:14:24.010Z,13.91
2023-05-10T22:16:52.272Z,13.81
2023-05-10T22:19:20.605Z,13.77
2023-05-10T22:21:50.035Z,13.69
2023-05-10T22:24:18.431Z,13.61
2023-05-10T22:26:46.525Z,13.54
2023-05-10T22:29:14.590Z,13.47
2023-05-10T22:31:42.714Z,13.42
2023-05-10T22:34:10.826Z,13.41
2023-05-10T22:36:38.887Z,13.40
2023-05-10T22:39:08.371Z,13.38
2023-05-10T22:41:36.438Z,13.37
2023-05-10T22:44:05.001Z,13.37
2023-05-10T22:46:33.544Z,13.39
2023-05-10T22:49:01.829Z,13.40
2023-05-10T22:51:29.890Z,13.39
2023-05-10T22:53:57.939Z,13.39
2023-05-10T22:56:27.464Z,13.40
2023-05-10T22:58:55.962Z,13.44
2023-05-10T23:01:24.061Z,13.47
2023-05-10T23:03:52.343Z,13.48
2023-05-10T23:06:20.410Z,13.44
2023-05-10T23:08:48.461Z,13.38
2023-05-10T23:11:16.536Z,13.38
2023-05-10T23:13:45.990Z,13.37
2023-05-10T23:16:14.154Z,13.33
2023-05-10T23:18:42.306Z,13.26
2023-05-10T23:21:10.512Z,13.22
2023-05-10T23:23:38.598Z,13.20
2023-05-10T23:26:06.676Z,13.23
2023-05-10T23:28:34.715Z,13.27
2023-05-10T23:31:04.227Z,13.32
2023-05-10T23:33:32.257Z,13.31
2023-05-10T23:36:00.441Z,13.32
2023-05-10T23:38:28.486Z,13.32
2023-05-10T23:40:56.997Z,13.33
2023-05-10T23:43:25.446Z,13.33
2023-05-10T23:45:54.816Z,13.32
2023-05-10T23:48:24.565Z,13.28
2023-05-10T23:50:52.704Z,13.24
2023-05-10T23:53:20.948Z,13.26
2023-05-10T23:55:49.032Z,13.31
2023-05-10T23:58:17.301Z,13.37
